Time;durP1;ratioP1;P1;durP2;ratioP2;P2;SDS_P1;SDS_P2;PMS_P1;PMS_P2;Temp;Humidity;BMP_temperature;BMP_pressure;BME280_temperature;BME280_humidity;BME280_pressure;Samples;Min_cycle;Max_cycle;Signal;HPM_P1;HPM_P2
2021/09/08 00:00:34;;;;;;;17.50;9.63;;;17.20;98.20;;;;;;5053460;28;20195;-66
2021/09/08 00:03:01;;;;;;;15.93;7.97;;;17.40;97.90;;;;;;5053826;28;20601;-65
2021/09/08 00:05:28;;;;;;;15.20;6.20;;;17.40;97.90;;;;;;5047622;28;20700;-66
2021/09/08 00:07:56;;;;;;;15.80;7.00;;;17.60;97.80;;;;;;5052969;28;20198;-66
2021/09/08 00:10:23;;;;;;;450.23;118.73;;;17.70;97.60;;;;;;5052799;28;20190;-66
2021/09/08 00:12:51;;;;;;;20.73;7.63;;;17.80;97.60;;;;;;5053286;28;20426;-66
2021/09/08 00:15:19;;;;;;;175.27;48.07;;;17.90;97.60;;;;;;5053921;28;20273;-66
2021/09/08 00:17:46;;;;;;;694.13;187.17;;;17.90;97.30;;;;;;5051368;28;20993;-69
2021/09/08 00:20:15;;;;;;;411.40;107.70;;;17.90;97.40;;;;;;5051665;28;20921;-66
2021/09/08 00:22:44;;;;;;;16.10;8.23;;;17.80;97.50;;;;;;5045491;28;20428;-66
2021/09/08 00:25:13;;;;;;;15.60;6.73;;;17.90;97.60;;;;;;5049830;28;20215;-67
2021/09/08 00:27:40;;;;;;;706.97;187.20;;;18.10;97.30;;;;;;5038853;28;20262;-66
2021/09/08 00:30:09;;;;;;;484.93;136.30;;;18.10;97.30;;;;;;5047116;28;20433;-69
2021/09/08 00:32:37;;;;;;;479.10;133.30;;;18.20;97.40;;;;;;5046123;28;20420;-68
2021/09/08 00:35:05;;;;;;;412.80;116.77;;;18.30;97.10;;;;;;5051481;28;20443;-66
2021/09/08 00:37:33;;;;;;;17.23;9.47;;;18.40;97.20;;;;;;5050589;28;20432;-66
2021/09/08 00:40:00;;;;;;;16.43;8.50;;;18.30;97.30;;;;;;5050773;28;20191;-66
2021/09/08 00:42:28;;;;;;;15.93;7.63;;;18.30;97.70;;;;;;5047802;28;20183;-66
2021/09/08 00:44:55;;;;;;;15.77;7.20;;;18.60;97.60;;;;;;5048325;28;20630;-66
2021/09/08 00:47:23;;;;;;;22.97;9.33;;;18.50;97.20;;;;;;5049973;28;20718;-67
2021/09/08 00:49:50;;;;;;;16.83;8.67;;;18.70;97.50;;;;;;5047959;28;20196;-69
2021/09/08 00:52:18;;;;;;;14.63;5.60;;;18.70;97.50;;;;;;5051130;28;20654;-69
2021/09/08 00:54:50;;;;;;;15.27;7.37;;;18.90;97.10;;;;;;5051836;28;20524;-66
2021/09/08 00:57:19;;;;;;;14.07;5.40;;;19.10;97.20;;;;;;5053437;28;20176;-68
2021/09/08 00:59:47;;;;;;;14.97;6.87;;;19.20;96.90;;;;;;5048999;28;20552;-66
2021/09/08 01:02:15;;;;;;;689.50;185.53;;;19.10;97.20;;;;;;5053230;28;20230;-66
2021/09/08 01:04:43;;;;;;;731.50;203.13;;;19.30;96.40;;;;;;5052527;28;20467;-67
2021/09/08 01:07:13;;;;;;;740.10;199.93;;;19.40;96.30;;;;;;5053228;28;20779;-67
2021/09/08 01:09:43;;;;;;;493.70;131.17;;;19.20;96.50;;;;;;5050869;28;20435;-67
2021/09/08 01:12:10;;;;;;;981.10;276.63;;;19.30;96.70;;;;;;5043704;28;20436;-66
2021/09/08 01:14:38;;;;;;;496.13;134.93;;;19.40;96.80;;;;;;5051404;28;20433;-67
2021/09/08 01:17:05;;;;;;;687.63;196.83;;;19.60;96.50;;;;;;5052171;28;20448;-67
2021/09/08 01:19:32;;;;;;;1036.43;296.40;;;19.70;96.30;;;;;;5045104;28;20463;-65
2021/09/08 01:22:00;;;;;;;22.43;8.47;;;19.80;96.30;;;;;;5050286;28;20428;-66
2021/09/08 01:24:27;;;;;;;740.40;206.17;;;19.90;96.40;;;;;;5046804;28;20608;-66
2021/09/08 01:26:56;;;;;;;747.40;202.23;;;20.10;95.80;;;;;;5053212;28;20500;-66
2021/09/08 01:29:23;;;;;;;707.03;193.80;;;20.40;95.50;;;;;;5053861;28;20438;-67
2021/09/08 01:31:55;;;;;;;1049.00;291.03;;;20.30;95.50;;;;;;5054292;28;20424;-66
2021/09/08 01:34:58;;;;;;;518.57;142.23;;;20.20;95.70;;;;;;5052586;28;20440;-72
2021/09/08 01:37:25;;;;;;;722.77;204.70;;;20.30;95.10;;;;;;5061370;28;20428;-66
2021/09/08 01:40:18;;;;;;;745.50;202.13;;;20.40;95.10;;;;;;5055923;28;20429;-73
2021/09/08 01:42:46;;;;;;;751.33;211.63;;;20.80;94.70;;;;;;5054482;28;20425;-66
2021/09/08 01:45:18;;;;;;;760.10;227.63;;;21.20;94.20;;;;;;5050588;28;20534;-72
2021/09/08 01:47:46;;;;;;;762.70;278.60;;;21.30;93.40;;;;;;5045542;28;20936;-69
2021/09/08 01:50:17;;;;;;;775.83;385.07;;;21.40;93.30;;;;;;5051745;28;20433;-69
2021/09/08 01:53:02;;;;;;;1130.87;751.00;;;21.30;93.60;;;;;;5051913;28;20408;-70
2021/09/08 01:55:29;;;;;;;1131.60;751.23;;;21.60;92.90;;;;;;5052552;28;20409;-70
2021/09/08 01:58:01;;;;;;;1139.90;773.97;;;21.80;92.50;;;;;;5047491;28;20951;-71
2021/09/08 02:01:26;;;;;;;773.20;494.13;;;22.00;91.90;;;;;;5033241;28;20417;-70
2021/09/08 02:04:27;;;;;;;786.20;531.63;;;22.00;92.00;;;;;;5048048;28;20325;-73
2021/09/08 02:07:05;;;;;;;1128.13;851.97;;;22.00;91.50;;;;;;5053416;28;20200;-74
2021/09/08 02:09:32;;;;;;;1110.30;858.13;;;22.20;91.30;;;;;;5053001;28;20421;-66
2021/09/08 02:11:59;;;;;;;803.33;588.53;;;22.40;90.50;;;;;;5051489;28;20429;-66
2021/09/08 02:14:27;;;;;;;793.93;534.90;;;22.20;90.70;;;;;;5049864;28;20180;-66
2021/09/08 02:16:54;;;;;;;767.07;590.53;;;22.40;90.40;;;;;;5051254;28;20184;-67
2021/09/08 02:19:21;;;;;;;1098.77;854.07;;;22.70;88.40;;;;;;5051520;28;20180;-68
2021/09/08 02:21:52;;;;;;;1171.00;868.77;;;22.80;88.40;;;;;;5045282;28;20437;-67
2021/09/08 02:24:19;;;;;;;807.20;593.67;;;22.60;88.00;;;;;;5048238;28;20857;-67
2021/09/08 02:26:46;;;;;;;1176.97;863.17;;;22.80;87.30;;;;;;5051315;28;20183;-66
2021/09/08 02:29:14;;;;;;;1126.53;862.40;;;22.80;87.30;;;;;;5048553;28;20498;-67
2021/09/08 02:31:41;;;;;;;1128.87;870.17;;;22.50;86.60;;;;;;5050924;28;20475;-68
2021/09/08 02:34:09;;;;;;;1100.17;868.80;;;22.40;87.50;;;;;;5050782;28;20441;-67
2021/09/08 02:36:36;;;;;;;1037.30;838.47;;;22.70;88.20;;;;;;5051535;28;20172;-69
2021/09/08 02:39:04;;;;;;;1112.10;875.17;;;22.30;90.80;;;;;;5043255;28;20187;-69
2021/09/08 02:41:31;;;;;;;1119.47;863.43;;;22.40;90.60;;;;;;5048596;28;20532;-69
2021/09/08 02:43:59;;;;;;;1108.10;857.90;;;22.40;90.30;;;;;;5044904;28;20421;-68
2021/09/08 02:46:26;;;;;;;1072.13;856.40;;;22.20;91.40;;;;;;5049988;28;20432;-67
2021/09/08 02:48:54;;;;;;;1059.83;858.60;;;22.30;91.30;;;;;;5049228;28;20532;-68
2021/09/08 02:51:21;;;;;;;1077.97;875.53;;;22.70;90.90;;;;;;5049747;28;20523;-68
2021/09/08 02:53:48;;;;;;;756.80;597.87;;;23.20;90.00;;;;;;5053105;28;20480;-69
2021/09/08 02:56:16;;;;;;;1067.90;872.87;;;23.10;88.40;;;;;;5052603;28;20276;-68
2021/09/08 02:58:43;;;;;;;1088.17;871.03;;;22.80;89.70;;;;;;5053284;28;20432;-69
2021/09/08 03:01:13;;;;;;;1070.97;863.33;;;22.90;90.60;;;;;;5054196;28;20235;-68
2021/09/08 03:03:41;;;;;;;757.50;600.27;;;22.90;90.00;;;;;;5053585;28;20654;-68
2021/09/08 03:06:09;;;;;;;1077.57;873.20;;;22.60;91.00;;;;;;5053518;28;20591;-68
2021/09/08 03:08:36;;;;;;;1058.77;868.57;;;22.80;91.10;;;;;;5045369;28;20528;-68
2021/09/08 03:11:04;;;;;;;1051.20;853.40;;;23.00;91.20;;;;;;5053571;28;20207;-68
2021/09/08 03:13:31;;;;;;;1044.07;854.67;;;22.70;91.50;;;;;;5048971;28;20184;-68
2021/09/08 03:15:59;;;;;;;1040.70;849.70;;;22.90;90.90;;;;;;5052181;28;21079;-71
2021/09/08 03:18:27;;;;;;;1036.83;849.87;;;23.10;91.30;;;;;;5049017;28;20172;-69
2021/09/08 03:20:54;;;;;;;1022.80;838.83;;;23.20;90.70;;;;;;5052643;28;20230;-68
2021/09/08 03:23:21;;;;;;;995.83;811.40;;;23.50;90.50;;;;;;5052484;28;20176;-70
2021/09/08 03:25:48;;;;;;;983.50;794.93;;;23.40;90.60;;;;;;5054143;28;20212;-69
2021/09/08 03:28:16;;;;;;;693.27;534.03;;;23.40;90.90;;;;;;5053219;28;20583;-69
2021/09/08 03:30:43;;;;;;;965.60;750.87;;;23.10;91.30;;;;;;5049573;28;20623;-69
2021/09/08 03:33:12;;;;;;;963.03;747.07;;;22.80;91.90;;;;;;5049281;28;20183;-70
2021/09/08 03:35:39;;;;;;;954.33;725.67;;;23.30;91.90;;;;;;5050271;28;20241;-68
2021/09/08 03:38:07;;;;;;;964.83;744.77;;;24.00;91.30;;;;;;5046940;28;20187;-69
2021/09/08 03:40:34;;;;;;;961.50;735.40;;;24.10;91.20;;;;;;5050175;28;20286;-68
2021/09/08 03:43:02;;;;;;;961.20;733.87;;;23.50;91.40;;;;;;5050929;28;20554;-68
2021/09/08 03:45:29;;;;;;;962.80;746.33;;;23.50;92.00;;;;;;5050311;28;20423;-69
2021/09/08 03:47:56;;;;;;;960.80;744.90;;;24.00;91.50;;;;;;5049661;28;20188;-69
2021/09/08 03:50:24;;;;;;;963.77;744.43;;;23.50;91.40;;;;;;5052230;28;20684;-69
2021/09/08 03:52:51;;;;;;;954.70;732.00;;;23.60;91.60;;;;;;5048783;28;20598;-68
2021/09/08 03:55:19;;;;;;;956.97;722.83;;;23.30;92.20;;;;;;5049811;28;20217;-69
2021/09/08 03:57:46;;;;;;;958.63;724.30;;;23.40;92.40;;;;;;5045296;28;20180;-69
2021/09/08 04:00:14;;;;;;;954.93;730.27;;;24.00;91.60;;;;;;5052201;28;20537;-69
2021/09/08 04:02:41;;;;;;;973.50;766.10;;;24.00;91.30;;;;;;5050315;28;20219;-67
2021/09/08 04:05:09;;;;;;;967.07;752.77;;;24.20;91.20;;;;;;5051083;28;20697;-68
2021/09/08 04:07:37;;;;;;;972.80;773.60;;;24.90;90.80;;;;;;5049204;28;20184;-69
2021/09/08 04:10:04;;;;;;;982.93;781.27;;;24.70;90.70;;;;;;5047246;28;20596;-70
2021/09/08 04:12:32;;;;;;;977.77;767.57;;;24.10;91.00;;;;;;5042465;28;20181;-69
2021/09/08 04:14:59;;;;;;;978.67;776.93;;;24.30;91.10;;;;;;5048037;28;20204;-70
2021/09/08 04:17:27;;;;;;;980.33;779.70;;;24.30;90.80;;;;;;5042176;28;20658;-70
2021/09/08 04:19:54;;;;;;;984.50;773.47;;;23.90;91.60;;;;;;5040349;28;20188;-69
2021/09/08 04:22:22;;;;;;;1002.20;825.67;;;24.80;90.60;;;;;;5047357;28;20195;-70
2021/09/08 04:24:49;;;;;;;1016.53;849.67;;;24.80;89.90;;;;;;5044442;28;20212;-71
2021/09/08 04:27:16;;;;;;;1003.83;831.73;;;24.20;90.40;;;;;;5050044;28;20623;-68
2021/09/08 04:29:44;;;;;;;1006.53;834.10;;;24.00;90.80;;;;;;5052279;28;20191;-71
2021/09/08 04:32:11;;;;;;;996.90;826.33;;;24.10;90.40;;;;;;5049035;28;20188;-70
2021/09/08 04:34:38;;;;;;;998.93;817.67;;;23.70;90.90;;;;;;5045050;28;20183;-69
2021/09/08 04:37:06;;;;;;;995.43;821.87;;;24.00;90.90;;;;;;5052500;28;20658;-69
2021/09/08 04:39:33;;;;;;;997.23;828.17;;;24.70;90.10;;;;;;5048862;28;20270;-71
2021/09/08 04:42:01;;;;;;;994.90;822.90;;;24.80;89.40;;;;;;5052834;28;20553;-70
2021/09/08 04:44:28;;;;;;;996.03;831.90;;;24.70;90.10;;;;;;5050064;28;20222;-71
2021/09/08 04:46:55;;;;;;;996.53;835.23;;;24.70;90.10;;;;;;5052656;28;20730;-70
2021/09/08 04:49:26;;;;;;;984.83;813.53;;;24.30;90.60;;;;;;5045951;28;20176;-70
2021/09/08 04:51:53;;;;;;;977.63;793.23;;;24.60;90.20;;;;;;5051646;28;20183;-69
2021/09/08 04:54:21;;;;;;;988.40;808.30;;;24.80;89.90;;;;;;5045083;28;20705;-70
2021/09/08 04:56:48;;;;;;;990.90;816.20;;;25.20;88.80;;;;;;5054166;28;20248;-68
2021/09/08 04:59:15;;;;;;;1001.23;828.47;;;24.40;89.50;;;;;;5053642;28;20176;-69
2021/09/08 05:01:43;;;;;;;994.50;824.63;;;25.00;89.00;;;;;;5051418;28;20219;-70
2021/09/08 05:04:10;;;;;;;1000.27;819.90;;;25.30;88.20;;;;;;5055921;28;20220;-69
2021/09/08 05:06:37;;;;;;;983.87;801.50;;;25.40;87.70;;;;;;5056646;28;20274;-69
2021/09/08 05:09:05;;;;;;;979.20;790.67;;;25.30;87.50;;;;;;5055052;28;20188;-70
2021/09/08 05:11:32;;;;;;;976.40;785.23;;;25.60;87.20;;;;;;5047687;28;20651;-69
2021/09/08 05:14:00;;;;;;;980.93;796.37;;;25.30;87.10;;;;;;5052012;28;20184;-69
2021/09/08 05:16:27;;;;;;;982.27;800.10;;;25.40;87.90;;;;;;5051608;28;20187;-70
2021/09/08 05:18:54;;;;;;;981.97;802.70;;;24.90;88.00;;;;;;5050030;28;20203;-70
2021/09/08 05:21:22;;;;;;;989.80;814.77;;;25.10;87.70;;;;;;5051849;28;20190;-68
2021/09/08 05:23:50;;;;;;;985.60;800.63;;;24.70;88.10;;;;;;5052106;28;20187;-71
2021/09/08 05:26:17;;;;;;;974.83;781.33;;;24.50;89.10;;;;;;5050833;28;20192;-69
2021/09/08 05:28:45;;;;;;;974.13;782.40;;;24.90;88.40;;;;;;5052172;28;20182;-69
2021/09/08 05:31:12;;;;;;;974.37;782.03;;;25.00;87.80;;;;;;5049539;28;20297;-70
2021/09/08 05:33:39;;;;;;;979.57;778.17;;;24.80;88.00;;;;;;5049173;28;20175;-70
2021/09/08 05:36:07;;;;;;;978.40;772.90;;;24.50;88.60;;;;;;5050380;28;20548;-70
2021/09/08 05:38:35;;;;;;;978.63;781.00;;;24.70;89.40;;;;;;5045595;28;20180;-70
2021/09/08 05:41:06;;;;;;;982.77;793.97;;;24.60;88.50;;;;;;5049054;28;20187;-71
2021/09/08 05:43:33;;;;;;;973.40;778.50;;;24.50;88.80;;;;;;5051750;28;20180;-69
2021/09/08 05:46:00;;;;;;;978.87;788.67;;;24.50;88.50;;;;;;5050847;28;20585;-69
2021/09/08 05:48:28;;;;;;;970.57;763.63;;;24.60;88.80;;;;;;5048907;28;20183;-70
2021/09/08 05:50:55;;;;;;;975.07;789.00;;;24.40;89.60;;;;;;5047162;28;20644;-68
2021/09/08 05:53:26;;;;;;;972.00;773.57;;;24.40;89.20;;;;;;5044967;28;20542;-67
2021/09/08 05:55:55;;;;;;;976.27;776.70;;;24.30;90.00;;;;;;5052096;28;20176;-69
2021/09/08 05:58:24;;;;;;;982.20;793.43;;;24.90;89.60;;;;;;5048032;28;20276;-69
2021/09/08 06:00:51;;;;;;;971.07;770.93;;;25.20;88.20;;;;;;5049512;28;20188;-67
2021/09/08 06:03:19;;;;;;;971.57;773.33;;;25.10;87.40;;;;;;5044856;28;20325;-69
2021/09/08 06:05:46;;;;;;;970.57;774.93;;;25.00;87.80;;;;;;5051419;28;20650;-70
2021/09/08 06:08:13;;;;;;;974.23;770.83;;;24.40;88.70;;;;;;5052085;28;20179;-69
2021/09/08 06:10:41;;;;;;;972.63;772.10;;;23.70;90.30;;;;;;5051613;28;20187;-70
2021/09/08 06:13:09;;;;;;;965.63;765.77;;;24.00;90.40;;;;;;5052325;28;20184;-70
2021/09/08 06:15:36;;;;;;;962.00;755.37;;;24.10;90.50;;;;;;5051954;28;20176;-68
2021/09/08 06:18:05;;;;;;;963.00;758.80;;;24.20;90.40;;;;;;5050669;28;20253;-70
2021/09/08 06:20:33;;;;;;;976.87;785.93;;;24.50;89.80;;;;;;5049945;28;20602;-68
2021/09/08 06:23:00;;;;;;;980.53;797.17;;;24.40;89.90;;;;;;5044695;28;20250;-68
2021/09/08 06:25:28;;;;;;;975.67;788.60;;;24.30;90.30;;;;;;5047032;28;20215;-69
2021/09/08 06:27:55;;;;;;;972.77;787.83;;;24.50;90.10;;;;;;5048277;28;20180;-67
2021/09/08 06:30:23;;;;;;;984.77;799.97;;;24.10;90.30;;;;;;5053797;28;20642;-69
2021/09/08 06:32:50;;;;;;;977.70;796.30;;;23.90;90.80;;;;;;5053770;28;20263;-69
2021/09/08 06:35:19;;;;;;;982.17;802.10;;;24.30;90.60;;;;;;5055027;28;20180;-70
2021/09/08 06:37:46;;;;;;;974.37;796.87;;;23.90;90.70;;;;;;5052204;28;20602;-69
2021/09/08 06:40:16;;;;;;;997.00;828.43;;;23.90;90.80;;;;;;5056601;28;20242;-69
2021/09/08 06:42:44;;;;;;;991.60;805.63;;;23.60;91.30;;;;;;5055701;28;20641;-69
2021/09/08 06:45:12;;;;;;;987.23;798.50;;;23.00;92.20;;;;;;5055367;28;20261;-68
2021/09/08 06:47:40;;;;;;;984.20;799.27;;;22.90;92.40;;;;;;5056213;28;20180;-68
2021/09/08 06:50:08;;;;;;;982.47;792.07;;;22.60;93.10;;;;;;5066410;28;20512;-70
2021/09/08 06:52:36;;;;;;;989.53;809.33;;;22.70;93.00;;;;;;5063492;28;20528;-67
2021/09/08 06:55:04;;;;;;;982.77;781.30;;;22.80;93.10;;;;;;5054626;28;20196;-71
2021/09/08 06:57:35;;;;;;;702.83;551.60;;;22.80;93.20;;;;;;5055679;28;20172;-68
2021/09/08 07:00:02;;;;;;;990.97;806.93;;;22.70;93.40;;;;;;5055306;28;20274;-67
2021/09/08 07:02:29;;;;;;;993.03;802.47;;;22.30;94.00;;;;;;5054281;28;20228;-65
2021/09/08 07:04:57;;;;;;;992.83;807.00;;;22.30;94.20;;;;;;5046502;28;20735;-69
2021/09/08 07:07:24;;;;;;;1002.73;814.20;;;22.10;94.40;;;;;;5054515;28;20194;-66
2021/09/08 07:09:51;;;;;;;998.73;807.50;;;21.80;94.90;;;;;;5054888;28;20164;-68
2021/09/08 07:12:19;;;;;;;1010.53;820.93;;;21.60;95.00;;;;;;5049174;28;20215;-66
2021/09/08 07:14:46;;;;;;;1015.50;823.77;;;21.40;95.50;;;;;;5041261;28;20267;-66
2021/09/08 07:17:14;;;;;;;1012.33;799.40;;;20.90;96.10;;;;;;5054069;28;20654;-66
2021/09/08 07:19:41;;;;;;;1060.07;847.97;;;20.50;96.90;;;;;;5054237;28;20428;-68
2021/09/08 07:22:08;;;;;;;1078.80;842.97;;;20.10;97.90;;;;;;5055060;28;20432;-67
2021/09/08 07:24:37;;;;;;;787.73;577.73;;;19.80;98.80;;;;;;5053566;28;20465;-67
2021/09/08 07:27:04;;;;;;;1144.63;850.23;;;19.60;99.50;;;;;;5054649;28;20865;-67
2021/09/08 07:29:31;;;;;;;831.63;588.47;;;19.40;99.90;;;;;;5042596;28;20479;-67
2021/09/08 07:31:59;;;;;;;1189.50;873.50;;;19.40;99.90;;;;;;5053972;28;20422;-67
2021/09/08 07:34:26;;;;;;;1188.20;864.33;;;19.20;99.90;;;;;;5051199;28;20448;-68
2021/09/08 07:36:54;;;;;;;1175.60;860.40;;;19.10;99.90;;;;;;5048155;28;20461;-69
2021/09/08 07:39:21;;;;;;;1154.57;834.43;;;18.90;99.90;;;;;;5052841;28;20481;-66
2021/09/08 07:41:49;;;;;;;1173.67;842.63;;;18.80;99.90;;;;;;5052813;28;20428;-68
2021/09/08 07:44:16;;;;;;;12.77;5.47;;;18.70;99.90;;;;;;5052728;28;20546;-69
2021/09/08 07:46:43;;;;;;;815.67;572.90;;;18.60;99.90;;;;;;5054125;28;20192;-68
2021/09/08 07:49:11;;;;;;;1168.40;838.53;;;18.60;99.90;;;;;;5054200;28;20441;-68
2021/09/08 07:51:38;;;;;;;777.83;544.83;;;18.50;99.90;;;;;;5055278;28;20409;-67
2021/09/08 07:54:06;;;;;;;829.67;587.90;;;18.40;99.90;;;;;;5047904;28;20432;-67
2021/09/08 07:56:33;;;;;;;783.57;553.03;;;18.30;99.90;;;;;;5049648;28;20429;-67
2021/09/08 07:59:02;;;;;;;778.43;538.23;;;18.20;99.90;;;;;;5054112;28;20416;-68
2021/09/08 08:01:32;;;;;;;1129.70;816.47;;;18.20;99.90;;;;;;5053445;28;20457;-68
2021/09/08 08:04:00;;;;;;;1095.97;755.27;;;18.20;99.90;;;;;;5053906;28;20432;-67
2021/09/08 08:06:27;;;;;;;16.43;8.00;;;18.10;99.90;;;;;;5050502;28;20420;-67
2021/09/08 08:08:55;;;;;;;755.20;403.87;;;18.10;99.90;;;;;;5051577;28;20183;-68
2021/09/08 08:11:22;;;;;;;1056.10;575.77;;;18.00;99.90;;;;;;5051355;28;20405;-68
2021/09/08 08:13:49;;;;;;;1039.97;605.10;;;18.00;99.90;;;;;;5053348;28;20428;-68
2021/09/08 08:16:17;;;;;;;18.47;7.27;;;17.90;99.90;;;;;;5053645;28;20408;-67
2021/09/08 08:18:44;;;;;;;734.20;215.10;;;17.90;99.90;;;;;;5053035;28;20226;-68
2021/09/08 08:21:12;;;;;;;1053.97;343.17;;;17.90;99.90;;;;;;5053587;28;20817;-68
2021/09/08 08:23:39;;;;;;;1052.77;312.87;;;17.80;99.90;;;;;;5041666;28;21001;-68
2021/09/08 08:26:07;;;;;;;15.47;6.60;;;17.70;99.90;;;;;;5054625;28;20486;-67
2021/09/08 08:28:34;;;;;;;757.70;210.97;;;17.70;99.90;;;;;;5053088;28;20214;-67
2021/09/08 08:31:02;;;;;;;15.60;6.83;;;17.70;99.90;;;;;;5049797;28;20420;-66
2021/09/08 08:33:29;;;;;;;763.40;197.57;;;17.70;99.90;;;;;;5054028;28;20187;-67
2021/09/08 08:35:57;;;;;;;23.50;8.33;;;17.60;99.90;;;;;;5043104;28;20454;-66
2021/09/08 08:38:24;;;;;;;759.20;191.33;;;17.60;99.90;;;;;;5052701;28;20282;-67
2021/09/08 08:40:52;;;;;;;758.07;225.57;;;17.50;99.90;;;;;;5041102;28;20582;-68
2021/09/08 08:43:20;;;;;;;1046.37;422.07;;;17.50;99.90;;;;;;5053587;28;20400;-67
2021/09/08 08:45:48;;;;;;;757.67;397.90;;;17.50;99.90;;;;;;5048004;28;20768;-68
2021/09/08 08:48:15;;;;;;;750.80;254.43;;;17.50;99.90;;;;;;5051163;28;20417;-65
2021/09/08 08:50:43;;;;;;;1095.37;748.30;;;17.40;99.90;;;;;;5049745;28;20467;-66
2021/09/08 08:53:10;;;;;;;715.63;345.30;;;17.40;99.90;;;;;;5053042;28;20416;-66
2021/09/08 08:55:37;;;;;;;19.03;7.13;;;17.30;99.90;;;;;;5051789;28;20771;-68
2021/09/08 08:58:05;;;;;;;745.67;261.27;;;17.40;99.90;;;;;;5053042;28;20184;-67
2021/09/08 09:00:32;;;;;;;16.13;7.80;;;17.30;99.90;;;;;;5052820;28;21088;-67
2021/09/08 09:03:00;;;;;;;749.37;188.00;;;17.30;99.90;;;;;;5052998;28;20665;-67
2021/09/08 09:05:41;;;;;;;1047.10;305.87;;;17.20;99.90;;;;;;5053083;28;20463;-67
2021/09/08 09:08:10;;;;;;;14.97;5.60;;;17.30;99.90;;;;;;5053136;28;20507;-67
2021/09/08 09:10:39;;;;;;;746.83;225.23;;;17.20;99.90;;;;;;5052825;28;20174;-66
2021/09/08 09:13:09;;;;;;;756.43;242.73;;;17.20;99.90;;;;;;5053241;28;20409;-67
2021/09/08 09:15:36;;;;;;;1121.73;808.90;;;17.20;99.90;;;;;;5050056;28;20499;-67
2021/09/08 09:18:04;;;;;;;1088.23;766.60;;;17.20;99.90;;;;;;5052546;28;20413;-66
2021/09/08 09:20:35;;;;;;;1134.93;812.80;;;17.20;99.90;;;;;;5046490;28;20444;-67
2021/09/08 09:23:04;;;;;;;15.90;7.00;;;17.10;99.90;;;;;;5047921;28;20421;-66
2021/09/08 09:25:36;;;;;;;721.73;325.00;;;17.10;99.90;;;;;;5050189;28;20699;-66
2021/09/08 09:28:06;;;;;;;749.63;357.27;;;17.00;99.90;;;;;;5049183;28;20412;-67
2021/09/08 09:30:39;;;;;;;15.87;7.17;;;17.00;99.90;;;;;;5051551;28;20424;-66
2021/09/08 09:33:06;;;;;;;515.20;185.27;;;17.00;99.90;;;;;;5052581;28;20274;-66
2021/09/08 09:35:34;;;;;;;15.37;6.10;;;17.00;99.90;;;;;;5051701;28;20439;-67
2021/09/08 09:38:04;;;;;;;753.53;203.33;;;16.90;99.90;;;;;;5045445;28;20268;-66
2021/09/08 09:40:35;;;;;;;513.57;141.43;;;16.90;99.90;;;;;;5049686;28;21006;-66
2021/09/08 09:43:07;;;;;;;14.97;5.37;;;16.90;99.90;;;;;;5045026;28;20508;-68
2021/09/08 09:45:40;;;;;;;752.10;215.40;;;16.90;99.90;;;;;;5051659;28;20278;-67
2021/09/08 09:48:09;;;;;;;750.40;219.20;;;16.80;99.90;;;;;;5045992;28;20420;-67
2021/09/08 09:50:38;;;;;;;1034.93;309.47;;;16.80;99.90;;;;;;5032354;28;20443;-67
2021/09/08 09:53:06;;;;;;;1049.33;389.80;;;16.80;99.90;;;;;;5049773;28;20430;-66
2021/09/08 09:55:33;;;;;;;511.23;266.33;;;16.80;99.90;;;;;;5050758;28;20938;-67
2021/09/08 09:58:00;;;;;;;1050.30;579.10;;;16.80;99.90;;;;;;5049012;28;21013;-67
2021/09/08 10:00:28;;;;;;;738.57;298.33;;;16.80;99.90;;;;;;5052757;28;20432;-67
2021/09/08 10:02:56;;;;;;;743.23;288.50;;;16.80;99.90;;;;;;5054526;28;20533;-67
2021/09/08 10:05:24;;;;;;;741.90;227.63;;;16.70;99.90;;;;;;5053828;28;20479;-67
2021/09/08 10:07:52;;;;;;;1101.23;777.40;;;16.70;99.90;;;;;;5052944;28;20429;-67
2021/09/08 10:10:29;;;;;;;17.50;10.83;;;16.70;99.90;;;;;;5052320;28;20417;-67
2021/09/08 10:13:02;;;;;;;755.23;410.20;;;16.70;99.90;;;;;;5054261;28;20241;-67
2021/09/08 10:15:30;;;;;;;510.37;278.97;;;16.70;99.90;;;;;;5058609;28;20418;-68
2021/09/08 10:18:22;;;;;;;759.63;451.23;;;16.70;99.90;;;;;;5067624;28;20424;-68
2021/09/08 10:21:02;;;;;;;503.20;281.93;;;16.60;99.90;;;;;;5060463;28;20475;-68
2021/09/08 10:23:35;;;;;;;505.83;231.60;;;16.60;99.90;;;;;;5054492;28;20910;-67
2021/09/08 10:26:11;;;;;;;15.17;6.17;;;16.60;99.90;;;;;;5055558;28;20483;-67
2021/09/08 10:28:40;;;;;;;791.63;544.70;;;16.60;99.90;;;;;;5053824;28;20178;-67
2021/09/08 10:31:09;;;;;;;741.67;341.30;;;16.60;99.90;;;;;;5056059;28;20496;-67
2021/09/08 10:33:41;;;;;;;1033.70;510.33;;;16.60;99.90;;;;;;5055174;28;20922;-68
2021/09/08 10:36:15;;;;;;;733.27;275.60;;;16.60;99.90;;;;;;5055101;28;20423;-68
2021/09/08 10:38:43;;;;;;;17.27;10.07;;;16.60;99.90;;;;;;5055136;28;20425;-68
2021/09/08 10:41:11;;;;;;;751.97;213.53;;;16.50;99.90;;;;;;5054949;28;20186;-68
2021/09/08 10:43:39;;;;;;;15.07;5.80;;;16.50;99.90;;;;;;5044662;28;20435;-67
2021/09/08 10:46:10;;;;;;;750.50;211.67;;;16.50;99.90;;;;;;5055068;28;20241;-67
2021/09/08 10:48:48;;;;;;;723.60;211.97;;;16.40;99.90;;;;;;5055382;28;20414;-67
2021/09/08 10:51:44;;;;;;;1031.53;319.50;;;16.40;99.90;;;;;;5054410;28;20776;-68
2021/09/08 10:54:11;;;;;;;1039.60;328.37;;;16.40;99.90;;;;;;5047212;28;20424;-68
2021/09/08 10:56:46;;;;;;;15.53;6.93;;;16.40;99.90;;;;;;5053383;28;20524;-67
2021/09/08 10:59:14;;;;;;;710.17;331.97;;;16.30;99.90;;;;;;5055185;28;20235;-68
2021/09/08 11:01:42;;;;;;;15.20;6.17;;;16.30;99.90;;;;;;5054808;28;20460;-67
2021/09/08 11:04:16;;;;;;;764.87;487.83;;;16.30;99.90;;;;;;5054493;28;20229;-68
2021/09/08 11:06:48;;;;;;;755.37;491.87;;;16.30;99.90;;;;;;5053878;28;20780;-68
2021/09/08 11:09:17;;;;;;;14.63;5.13;;;16.30;99.90;;;;;;5054775;28;20426;-68
2021/09/08 11:11:58;;;;;;;674.77;433.10;;;16.30;99.90;;;;;;5054752;28;20187;-67
2021/09/08 11:14:52;;;;;;;1091.87;786.87;;;16.20;99.90;;;;;;5055029;28;20421;-67
2021/09/08 11:17:25;;;;;;;1032.30;269.43;;;16.20;99.90;;;;;;5053913;28;20928;-67
2021/09/08 11:19:54;;;;;;;15.07;5.97;;;16.20;99.90;;;;;;5054306;28;20438;-67
2021/09/08 11:22:22;;;;;;;747.60;179.80;;;16.20;99.90;;;;;;5045314;28;20184;-69
2021/09/08 11:25:11;;;;;;;746.83;180.47;;;16.20;99.90;;;;;;5050561;28;20564;-67
2021/09/08 11:27:40;;;;;;;23.53;8.97;;;16.10;99.90;;;;;;5051186;28;20795;-68
2021/09/08 11:30:09;;;;;;;747.43;187.33;;;16.10;99.90;;;;;;5050315;28;20212;-67
2021/09/08 11:32:52;;;;;;;22.53;8.40;;;16.10;99.90;;;;;;5051076;28;20456;-67
2021/09/08 11:35:41;;;;;;;751.83;183.47;;;16.10;99.90;;;;;;5054397;28;20183;-67
2021/09/08 11:38:21;;;;;;;30.33;9.47;;;16.10;99.90;;;;;;5054395;28;20432;-67
2021/09/08 11:40:57;;;;;;;755.73;188.23;;;16.10;99.90;;;;;;5054347;28;20536;-68
2021/09/08 11:43:34;;;;;;;14.90;5.67;;;16.10;99.90;;;;;;5054889;28;20445;-68
2021/09/08 11:46:25;;;;;;;14.73;5.30;;;16.10;99.90;;;;;;5053543;28;20599;-68
2021/09/08 11:49:02;;;;;;;748.03;198.97;;;16.00;99.90;;;;;;5053955;28;20170;-68
2021/09/08 11:51:32;;;;;;;505.93;137.30;;;16.00;99.90;;;;;;5057944;28;20433;-68
2021/09/08 11:54:02;;;;;;;508.30;129.93;;;16.00;99.90;;;;;;5052497;28;20439;-67
2021/09/08 11:56:29;;;;;;;1043.40;532.33;;;16.00;99.90;;;;;;5051086;28;20425;-68
2021/09/08 11:58:59;;;;;;;21.60;7.30;;;16.00;99.90;;;;;;5047379;28;20510;-67
2021/09/08 12:01:31;;;;;;;425.67;170.80;;;16.00;99.90;;;;;;5054863;28;20297;-68
2021/09/08 12:04:01;;;;;;;741.80;438.07;;;16.00;99.90;;;;;;5063176;28;20788;-68
2021/09/08 12:06:33;;;;;;;1027.13;581.47;;;15.90;99.90;;;;;;5052436;28;21011;-68
2021/09/08 12:09:13;;;;;;;733.60;387.03;;;15.90;99.90;;;;;;5053791;28;20560;-68
2021/09/08 12:11:45;;;;;;;497.10;222.37;;;15.90;99.90;;;;;;5040602;28;20436;-68
2021/09/08 12:14:26;;;;;;;1015.40;526.87;;;15.80;99.90;;;;;;5053360;28;20911;-67
2021/09/08 12:17:01;;;;;;;735.20;236.97;;;15.80;99.90;;;;;;5041939;28;20420;-68
2021/09/08 12:19:41;;;;;;;15.43;6.87;;;15.80;99.90;;;;;;5053942;28;20406;-67
2021/09/08 12:22:26;;;;;;;739.27;182.30;;;15.80;99.90;;;;;;5053000;28;20250;-67